createdAt,value
2023-03-05T00:00:24.947Z,7.17
2023-03-05T00:02:52.638Z,7.97
2023-03-05T00:05:20.424Z,8.27
2023-03-05T00:07:48.960Z,7.80
2023-03-05T00:10:17.076Z,8.70
2023-03-05T00:12:46.134Z,7.40
2023-03-05T00:15:14.022Z,7.43
2023-03-05T00:17:41.725Z,7.10
2023-03-05T00:20:10.614Z,6.90
2023-03-05T00:22:38.350Z,7.50
2023-03-05T00:25:09.272Z,7.10
2023-03-05T00:27:36.934Z,6.50
2023-03-05T00:30:07.182Z,6.60
2023-03-05T00:32:36.291Z,6.60
2023-03-05T00:35:04.252Z,6.43
2023-03-05T00:37:31.929Z,5.83
2023-03-05T00:39:59.722Z,6.27
2023-03-05T00:42:27.483Z,6.60
2023-03-05T00:44:55.247Z,6.27
2023-03-05T00:47:24.274Z,6.20
2023-03-05T00:49:51.960Z,6.50
2023-03-05T00:52:19.599Z,5.73
2023-03-05T00:54:47.296Z,5.70
2023-03-05T00:57:15.113Z,6.60
2023-03-05T00:59:42.820Z,5.93
2023-03-05T01:02:10.526Z,4.97
2023-03-05T01:04:39.604Z,5.70
2023-03-05T01:07:07.343Z,4.50
2023-03-05T01:09:35.036Z,5.20
2023-03-05T01:12:02.685Z,5.07
2023-03-05T01:14:30.332Z,5.40
2023-03-05T01:16:57.885Z,5.87
2023-03-05T01:19:25.577Z,5.30
2023-03-05T01:21:54.975Z,5.97
2023-03-05T01:24:22.543Z,6.63
2023-03-05T01:26:50.322Z,4.27
2023-03-05T01:29:17.849Z,5.10
2023-03-05T01:31:45.456Z,5.10
2023-03-05T01:34:13.659Z,5.97
2023-03-05T01:36:42.053Z,5.23
2023-03-05T01:39:11.011Z,5.10
2023-03-05T01:41:38.462Z,4.83
2023-03-05T01:44:06.390Z,4.40
2023-03-05T01:46:37.446Z,3.83
2023-03-05T01:49:20.981Z,4.70
2023-03-05T01:51:56.422Z,4.20
2023-03-05T01:54:27.964Z,3.87
2023-03-05T01:56:57.490Z,3.20
2023-03-05T01:59:25.924Z,3.90
2023-03-05T02:01:56.109Z,3.83
2023-03-05T02:04:27.523Z,5.50
2023-03-05T02:06:55.012Z,3.20
2023-03-05T02:09:24.026Z,3.30
2023-03-05T02:11:52.992Z,3.40
2023-03-05T02:14:21.253Z,4.20
2023-03-05T02:16:48.883Z,3.07
2023-03-05T02:19:16.479Z,3.63
2023-03-05T02:21:47.473Z,3.43
2023-03-05T02:24:15.831Z,3.37
2023-03-05T02:26:44.702Z,3.37
2023-03-05T02:29:15.319Z,4.10
2023-03-05T02:31:43.081Z,3.47
2023-03-05T02:34:10.682Z,3.27
2023-03-05T02:36:38.250Z,3.57
2023-03-05T02:39:07.160Z,3.57
2023-03-05T02:41:34.729Z,3.23
2023-03-05T02:44:02.655Z,3.87
2023-03-05T02:46:31.236Z,3.60
2023-03-05T02:48:58.704Z,3.50
2023-03-05T02:51:26.218Z,4.20
2023-03-05T02:53:53.746Z,4.33
2023-03-05T02:56:22.745Z,4.00
2023-03-05T02:58:50.440Z,3.83
2023-03-05T03:01:17.922Z,4.30
2023-03-05T03:03:45.518Z,4.40
2023-03-05T03:06:12.985Z,4.53
2023-03-05T03:08:40.462Z,4.20
2023-03-05T03:11:09.031Z,4.23
2023-03-05T03:13:37.852Z,4.10
2023-03-05T03:16:06.585Z,4.03
2023-03-05T03:18:34.292Z,3.90
2023-03-05T03:21:02.159Z,4.30
2023-03-05T03:23:29.641Z,4.10
2023-03-05T03:25:57.150Z,4.43
2023-03-05T03:28:24.653Z,4.50
2023-03-05T03:30:53.529Z,4.17
2023-03-05T03:33:21.049Z,4.10
2023-03-05T03:35:48.603Z,4.60
2023-03-05T03:38:16.145Z,4.03
2023-03-05T03:40:43.658Z,4.70
2023-03-05T03:43:11.168Z,4.37
2023-03-05T03:45:41.980Z,4.60
2023-03-05T03:48:11.363Z,5.10
2023-03-05T03:50:39.931Z,5.07
2023-03-05T03:53:07.543Z,4.73
2023-03-05T03:55:35.588Z,4.40
2023-03-05T03:58:03.334Z,5.27
2023-03-05T04:00:30.877Z,4.70
2023-03-05T04:02:58.413Z,4.70
2023-03-05T04:05:27.352Z,5.00
2023-03-05T04:07:55.082Z,4.77
2023-03-05T04:10:22.989Z,5.07
2023-03-05T04:12:50.502Z,5.00
2023-03-05T04:15:18.467Z,5.53
2023-03-05T04:17:46.016Z,5.40
2023-03-05T04:20:14.094Z,5.43
2023-03-05T04:22:42.941Z,5.23
2023-03-05T04:25:11.445Z,5.30
2023-03-05T04:27:40.145Z,4.97
2023-03-05T04:30:09.230Z,5.00
2023-03-05T04:32:36.880Z,4.97
2023-03-05T04:35:04.980Z,4.73
2023-03-05T04:37:32.532Z,6.03
2023-03-05T04:40:01.535Z,5.23
2023-03-05T04:42:29.011Z,6.17
2023-03-05T04:44:56.627Z,6.70
2023-03-05T04:47:24.162Z,5.10
2023-03-05T04:49:51.824Z,4.80
2023-03-05T04:52:19.300Z,4.33
2023-03-05T04:54:46.889Z,4.00
2023-03-05T04:57:15.737Z,2.80
2023-03-05T04:59:43.247Z,2.63
2023-03-05T05:02:10.762Z,3.07
2023-03-05T05:04:38.650Z,2.33
2023-03-05T05:07:07.529Z,2.60
2023-03-05T05:09:35.059Z,1.80
2023-03-05T05:12:02.554Z,2.20
2023-03-05T05:14:31.476Z,1.67
2023-03-05T05:16:59.576Z,2.10
2023-03-05T05:19:27.141Z,2.13
2023-03-05T05:21:54.686Z,1.50
2023-03-05T05:24:22.224Z,1.57
2023-03-05T05:26:49.715Z,1.60
2023-03-05T05:29:17.194Z,2.33
2023-03-05T05:31:46.290Z,1.37
2023-03-05T05:34:13.953Z,1.00
2023-03-05T05:36:41.500Z,1.43
2023-03-05T05:39:09.407Z,1.37
2023-03-05T05:41:36.972Z,1.33
2023-03-05T05:44:04.618Z,1.83
2023-03-05T05:46:32.151Z,1.67
2023-03-05T05:49:01.072Z,1.93
2023-03-05T05:51:28.620Z,1.77
2023-03-05T05:53:56.105Z,1.40
2023-03-05T05:56:23.643Z,2.00
2023-03-05T05:58:51.157Z,1.53
2023-03-05T06:01:21.117Z,1.33
2023-03-05T06:03:49.045Z,1.47
2023-03-05T06:06:19.642Z,2.27
2023-03-05T06:08:47.309Z,1.33
2023-03-05T06:11:15.195Z,2.00
2023-03-05T06:13:43.468Z,2.23
2023-03-05T06:16:15.458Z,1.33
2023-03-05T06:18:43.060Z,1.63
2023-03-05T06:21:13.094Z,2.03
2023-03-05T06:23:42.097Z,2.63
2023-03-05T06:26:10.462Z,1.90
2023-03-05T06:28:37.965Z,2.30
2023-03-05T06:31:07.269Z,1.90
2023-03-05T06:33:35.058Z,1.83
2023-03-05T06:36:04.254Z,2.20
2023-03-05T06:38:32.272Z,1.57
2023-03-05T06:41:05.678Z,1.80
2023-03-05T06:43:35.479Z,1.50
2023-03-05T06:46:04.775Z,1.83
2023-03-05T06:48:32.791Z,1.70
2023-03-05T06:51:00.814Z,1.47
2023-03-05T06:53:28.696Z,2.90
2023-03-05T06:55:56.421Z,2.27
2023-03-05T06:58:25.638Z,2.43
2023-03-05T07:00:53.361Z,2.47
2023-03-05T07:03:21.012Z,2.30
2023-03-05T07:05:48.552Z,2.37
2023-03-05T07:08:16.607Z,2.60
2023-03-05T07:10:44.806Z,2.43
2023-03-05T07:13:12.558Z,2.37
2023-03-05T07:15:42.079Z,2.03
2023-03-05T07:18:09.848Z,1.77
2023-03-05T07:20:37.915Z,1.93
2023-03-05T07:23:05.818Z,2.37
2023-03-05T07:25:34.271Z,2.40
2023-03-05T07:28:01.949Z,2.60
2023-03-05T07:30:29.671Z,3.77
2023-03-05T07:32:58.744Z,5.00
2023-03-05T07:35:27.551Z,4.27
2023-03-05T07:37:55.908Z,5.10
2023-03-05T07:40:23.671Z,3.90
2023-03-05T07:42:51.449Z,3.90
2023-03-05T07:45:19.203Z,3.57
2023-03-05T07:47:46.952Z,3.70
2023-03-05T07:50:16.422Z,3.97
2023-03-05T07:52:44.067Z,4.10
2023-03-05T07:55:12.345Z,4.27
2023-03-05T07:57:40.049Z,4.93
2023-03-05T08:00:09.044Z,3.93
2023-03-05T08:02:39.036Z,4.67
2023-03-05T08:05:07.280Z,5.50
2023-03-05T08:07:36.292Z,4.73
2023-03-05T08:10:04.508Z,4.83
2023-03-05T08:12:32.198Z,4.53
2023-03-05T08:15:00.015Z,4.40
2023-03-05T08:17:27.678Z,5.23
2023-03-05T08:19:58.282Z,5.10
2023-03-05T08:22:26.018Z,5.67
2023-03-05T08:24:55.050Z,5.77
2023-03-05T08:27:22.956Z,5.67
2023-03-05T08:29:50.734Z,5.10
2023-03-05T08:32:18.881Z,7.17
2023-03-05T08:34:46.630Z,5.17
2023-03-05T08:37:14.372Z,5.57
2023-03-05T08:39:43.386Z,6.00
2023-03-05T08:42:12.590Z,4.80
2023-03-05T08:44:40.247Z,4.73
2023-03-05T08:47:08.233Z,5.90
2023-03-05T08:49:37.221Z,4.13
2023-03-05T08:52:05.118Z,5.60
2023-03-05T08:54:32.819Z,6.20
2023-03-05T08:57:01.429Z,4.67
2023-03-05T08:59:30.589Z,5.37
2023-03-05T09:02:01.621Z,5.83
2023-03-05T09:04:29.280Z,5.23
2023-03-05T09:06:58.095Z,4.70
2023-03-05T09:09:25.818Z,5.07
2023-03-05T09:11:53.938Z,4.83
2023-03-05T09:14:21.803Z,6.10
2023-03-05T09:16:50.637Z,6.80
2023-03-05T09:19:18.109Z,5.77
2023-03-05T09:21:45.607Z,4.90
2023-03-05T09:24:15.205Z,4.60
2023-03-05T09:26:43.143Z,4.73
2023-03-05T09:29:10.646Z,4.53
2023-03-05T09:31:38.256Z,4.77
2023-03-05T09:34:08.766Z,3.87
2023-03-05T09:36:36.291Z,5.23
2023-03-05T09:39:04.598Z,3.87
2023-03-05T09:41:51.465Z,4.80
2023-03-05T09:44:26.112Z,4.43
2023-03-05T09:46:55.721Z,4.80
2023-03-05T09:49:33.668Z,5.30
2023-03-05T09:52:05.153Z,4.37
2023-03-05T09:54:38.326Z,4.67
2023-03-05T09:57:07.106Z,4.80
2023-03-05T09:59:37.868Z,4.90
2023-03-05T10:02:14.225Z,4.80
2023-03-05T10:04:46.653Z,5.47
2023-03-05T10:07:18.143Z,4.80
2023-03-05T10:09:48.110Z,4.70
2023-03-05T10:12:23.303Z,5.80
2023-03-05T10:14:51.093Z,4.77
2023-03-05T10:17:40.706Z,5.67
2023-03-05T10:20:37.350Z,4.73
2023-03-05T10:23:35.164Z,5.77
2023-03-05T10:26:16.053Z,5.80
2023-03-05T10:28:46.923Z,4.57
2023-03-05T10:31:37.487Z,4.17
2023-03-05T10:34:14.628Z,4.60
2023-03-05T10:36:51.345Z,4.77
2023-03-05T10:40:00.386Z,5.67
2023-03-05T10:42:32.202Z,4.50
2023-03-05T10:45:01.137Z,6.00
2023-03-05T10:47:31.608Z,4.93
2023-03-05T10:50:00.445Z,5.00
2023-03-05T10:52:36.694Z,4.63
2023-03-05T10:55:17.761Z,4.43
2023-03-05T10:57:45.609Z,4.37
2023-03-05T11:00:18.956Z,4.17
2023-03-05T11:02:59.282Z,4.33
2023-03-05T11:05:40.379Z,6.10
2023-03-05T11:08:24.964Z,4.67
2023-03-05T11:11:21.475Z,4.73
2023-03-05T11:13:54.920Z,3.90
2023-03-05T11:16:26.366Z,5.73
2023-03-05T11:19:18.478Z,4.77
2023-03-05T11:21:47.001Z,4.67
2023-03-05T11:24:18.980Z,4.87
2023-03-05T11:26:49.111Z,5.47
2023-03-05T11:29:22.737Z,4.77
2023-03-05T11:31:50.668Z,4.50
2023-03-05T11:34:31.402Z,4.93
2023-03-05T11:37:04.658Z,4.47
2023-03-05T11:39:36.590Z,6.30
2023-03-05T11:42:06.302Z,6.47
2023-03-05T11:44:35.886Z,5.20
2023-03-05T11:47:06.152Z,4.53
2023-03-05T11:49:47.538Z,4.60
2023-03-05T11:52:17.233Z,4.53
2023-03-05T11:54:53.786Z,4.60
2023-03-05T11:57:22.827Z,4.80
2023-03-05T11:59:51.186Z,6.13
2023-03-05T12:02:20.798Z,3.90
2023-03-05T12:04:49.039Z,4.53
2023-03-05T12:07:19.804Z,4.50
2023-03-05T12:09:50.107Z,5.20
2023-03-05T12:12:26.910Z,4.00
2023-03-05T12:14:59.205Z,4.00
2023-03-05T12:17:31.473Z,3.50
2023-03-05T12:19:59.766Z,3.57
2023-03-05T12:22:33.943Z,3.57
2023-03-05T12:25:28.727Z,3.10
2023-03-05T12:27:56.345Z,3.17
2023-03-05T12:30:59.182Z,3.10
2023-03-05T12:33:35.771Z,2.93
2023-03-05T12:36:35.353Z,4.07
2023-03-05T12:39:41.788Z,3.40
2023-03-05T12:42:42.938Z,3.10
2023-03-05T12:45:34.577Z,3.00
2023-03-05T12:48:42.321Z,3.50
2023-03-05T12:51:17.044Z,2.70
2023-03-05T12:53:44.660Z,2.80
2023-03-05T12:56:19.889Z,3.57
2023-03-05T12:58:49.405Z,2.43
2023-03-05T13:01:35.934Z,3.10
2023-03-05T13:04:10.540Z,2.57
2023-03-05T13:06:39.439Z,2.87
2023-03-05T13:09:17.006Z,2.80
2023-03-05T13:11:47.210Z,3.60
2023-03-05T13:14:29.458Z,2.03
2023-03-05T13:16:58.367Z,3.80
2023-03-05T13:19:25.931Z,2.00
2023-03-05T13:22:00.533Z,2.20
2023-03-05T13:24:29.124Z,2.27
2023-03-05T13:26:57.145Z,1.80
2023-03-05T13:29:28.144Z,1.57
2023-03-05T13:31:59.738Z,2.47
2023-03-05T13:34:40.847Z,1.80
2023-03-05T13:37:20.387Z,1.77
2023-03-05T13:39:49.964Z,1.67
2023-03-05T13:42:20.111Z,1.70
2023-03-05T13:44:57.854Z,1.20
2023-03-05T13:47:29.366Z,1.77
2023-03-05T13:49:59.811Z,2.70
2023-03-05T13:52:29.672Z,1.57
2023-03-05T13:54:57.335Z,1.90
2023-03-05T13:57:35.809Z,1.63
2023-03-05T14:00:06.375Z,1.90
2023-03-05T14:02:35.346Z,1.60
2023-03-05T14:05:02.938Z,1.63
2023-03-05T14:07:33.602Z,2.27
2023-03-05T14:10:03.015Z,2.40
2023-03-05T14:12:37.243Z,1.50
2023-03-05T14:15:21.650Z,1.73
2023-03-05T14:17:50.958Z,1.50
2023-03-05T14:20:23.970Z,1.50
2023-03-05T14:22:53.086Z,1.23
2023-03-05T14:25:28.774Z,1.60
2023-03-05T14:27:56.608Z,1.60
2023-03-05T14:30:25.484Z,1.37
2023-03-05T14:32:56.492Z,2.07
2023-03-05T14:35:27.120Z,1.97
2023-03-05T14:37:56.623Z,2.07
2023-03-05T14:40:28.820Z,2.03
2023-03-05T14:42:57.171Z,1.70
2023-03-05T14:45:26.455Z,2.40
2023-03-05T14:47:59.204Z,1.83
2023-03-05T14:50:29.416Z,2.40
2023-03-05T14:52:58.856Z,1.70
2023-03-05T14:55:28.105Z,1.70
2023-03-05T14:58:00.779Z,1.63
2023-03-05T15:00:29.559Z,1.57
2023-03-05T15:02:58.793Z,1.80
2023-03-05T15:05:26.477Z,2.23
2023-03-05T15:07:54.102Z,1.43
2023-03-05T15:10:23.594Z,1.73
2023-03-05T15:12:53.079Z,1.83
2023-03-05T15:15:21.651Z,2.10
2023-03-05T15:17:51.747Z,1.80
2023-03-05T15:20:22.841Z,2.10
2023-03-05T15:22:50.826Z,1.77
2023-03-05T15:25:20.088Z,2.20
2023-03-05T15:27:47.924Z,2.70
2023-03-05T15:30:23.198Z,2.30
2023-03-05T15:32:51.601Z,3.10
2023-03-05T15:35:24.453Z,2.30
2023-03-05T15:37:52.241Z,2.43
2023-03-05T15:40:21.025Z,2.57
2023-03-05T15:42:48.879Z,2.53
2023-03-05T15:45:18.302Z,2.30
2023-03-05T15:47:46.042Z,2.53
2023-03-05T15:50:13.933Z,2.23
2023-03-05T15:52:42.830Z,2.67
2023-03-05T15:55:11.972Z,3.13
2023-03-05T15:57:43.879Z,2.77
2023-03-05T16:00:13.176Z,2.30
2023-03-05T16:02:40.911Z,2.23
2023-03-05T16:05:10.051Z,2.00
2023-03-05T16:07:40.239Z,2.33
2023-03-05T16:10:13.469Z,2.43
2023-03-05T16:12:42.962Z,2.50
2023-03-05T16:15:33.024Z,2.00
2023-03-05T16:18:02.562Z,2.13
2023-03-05T16:20:30.276Z,3.73
2023-03-05T16:22:57.986Z,3.60
2023-03-05T16:25:27.108Z,3.40
2023-03-05T16:27:54.935Z,2.90
2023-03-05T16:30:22.665Z,2.13
2023-03-05T16:32:52.385Z,3.17
2023-03-05T16:35:21.522Z,3.50
2023-03-05T16:37:49.254Z,3.20
2023-03-05T16:40:17.108Z,3.20
2023-03-05T16:42:46.087Z,2.70
2023-03-05T16:45:14.384Z,3.03
2023-03-05T16:47:43.495Z,3.20
2023-03-05T16:50:18.355Z,3.73
2023-03-05T16:52:49.052Z,2.80
2023-03-05T16:55:16.716Z,3.40
2023-03-05T16:57:45.751Z,3.70
2023-03-05T17:00:14.625Z,2.60
2023-03-05T17:02:42.356Z,2.40
2023-03-05T17:05:10.600Z,2.63
2023-03-05T17:07:40.664Z,2.83
2023-03-05T17:10:09.486Z,2.90
2023-03-05T17:12:37.197Z,2.43
2023-03-05T17:15:09.263Z,3.80
2023-03-05T17:17:40.407Z,2.63
2023-03-05T17:20:09.811Z,3.63
2023-03-05T17:22:37.429Z,3.20
2023-03-05T17:25:05.477Z,2.43
2023-03-05T17:27:33.030Z,3.47
2023-03-05T17:30:00.737Z,3.50
2023-03-05T17:32:29.776Z,4.20
2023-03-05T17:34:57.689Z,3.03
2023-03-05T17:37:25.322Z,2.70
2023-03-05T17:39:53.600Z,3.00
2023-03-05T17:42:21.983Z,5.80
2023-03-05T17:44:50.476Z,4.00
2023-03-05T17:47:18.092Z,3.80
2023-03-05T17:49:52.958Z,3.93
2023-03-05T17:52:21.455Z,3.70
2023-03-05T17:54:50.341Z,3.87
2023-03-05T17:57:18.008Z,3.50
2023-03-05T17:59:49.280Z,3.63
2023-03-05T18:02:16.989Z,4.77
2023-03-05T18:04:44.818Z,3.60
2023-03-05T18:07:13.774Z,4.10
2023-03-05T18:09:41.277Z,3.83
2023-03-05T18:12:08.833Z,5.37
2023-03-05T18:14:36.334Z,3.77
2023-03-05T18:17:03.825Z,3.60
2023-03-05T18:19:31.318Z,4.83
2023-03-05T18:21:58.774Z,3.33
2023-03-05T18:24:27.639Z,3.67
2023-03-05T18:26:57.436Z,4.70
2023-03-05T18:29:25.086Z,3.20
2023-03-05T18:31:52.557Z,3.87
2023-03-05T18:34:23.350Z,3.63
2023-03-05T18:36:50.858Z,3.87
2023-03-05T18:39:18.662Z,2.70
2023-03-05T18:41:50.110Z,3.73
2023-03-05T18:44:19.738Z,3.63
2023-03-05T18:46:48.515Z,3.33
2023-03-05T18:49:15.984Z,3.60
2023-03-05T18:51:43.702Z,5.20
2023-03-05T18:54:11.244Z,4.53
2023-03-05T18:56:38.707Z,3.97
2023-03-05T18:59:08.780Z,3.20
2023-03-05T19:01:37.511Z,4.10
2023-03-05T19:04:05.591Z,3.70
2023-03-05T19:06:33.217Z,3.47
2023-03-05T19:09:09.735Z,2.83
2023-03-05T19:11:37.550Z,3.57
2023-03-05T19:14:05.131Z,4.67
2023-03-05T19:16:40.375Z,3.80
2023-03-05T19:19:15.250Z,4.60
2023-03-05T19:21:43.440Z,4.50
2023-03-05T19:24:11.989Z,2.67
2023-03-05T19:26:39.967Z,3.27
2023-03-05T19:29:09.381Z,3.13
2023-03-05T19:31:41.581Z,4.10
2023-03-05T19:34:11.635Z,4.30
2023-03-05T19:36:39.516Z,3.80
2023-03-05T19:39:08.311Z,5.30
2023-03-05T19:41:36.515Z,3.83
2023-03-05T19:44:05.239Z,3.60
2023-03-05T19:46:33.293Z,4.13
2023-03-05T19:49:02.340Z,4.10
2023-03-05T19:51:30.107Z,3.60
2023-03-05T19:53:57.847Z,3.60
2023-03-05T19:56:25.571Z,4.57
2023-03-05T19:58:53.281Z,4.70
2023-03-05T20:01:23.071Z,4.67
2023-03-05T20:03:51.971Z,4.10
2023-03-05T20:06:24.130Z,3.93
2023-03-05T20:08:51.934Z,4.93
2023-03-05T20:11:20.667Z,4.10
2023-03-05T20:13:48.580Z,3.57
2023-03-05T20:16:17.338Z,4.20
2023-03-05T20:18:52.557Z,3.90
2023-03-05T20:21:23.218Z,3.43
2023-03-05T20:23:50.933Z,4.93
2023-03-05T20:26:18.816Z,3.13
2023-03-05T20:29:17.360Z,3.33
2023-03-05T20:31:41.827Z,3.37
2023-03-05T20:34:12.000Z,3.67
2023-03-05T20:36:42.465Z,3.90
2023-03-05T20:39:10.119Z,3.23
2023-03-05T20:41:39.791Z,4.33
2023-03-05T20:44:08.686Z,4.00
2023-03-05T20:46:39.352Z,3.23
2023-03-05T20:49:07.003Z,3.57
2023-03-05T20:51:36.334Z,3.67
2023-03-05T20:54:08.594Z,3.57
2023-03-05T20:56:36.980Z,3.60
2023-03-05T20:59:07.486Z,4.10
2023-03-05T21:01:36.935Z,4.67
2023-03-05T21:04:05.314Z,5.27
2023-03-05T21:06:33.802Z,3.60
2023-03-05T21:09:01.440Z,3.60
2023-03-05T21:11:30.595Z,4.33
2023-03-05T21:13:59.047Z,4.70
2023-03-05T21:16:28.362Z,4.77
2023-03-05T21:18:57.190Z,4.07
2023-03-05T21:21:25.040Z,3.90
2023-03-05T21:23:53.350Z,4.63
2023-03-05T21:26:21.132Z,3.93
2023-03-05T21:28:50.308Z,4.07
2023-03-05T21:31:19.864Z,4.20
2023-03-05T21:33:47.772Z,4.10
2023-03-05T21:36:18.543Z,4.60
2023-03-05T21:38:46.913Z,4.23
2023-03-05T21:41:14.653Z,4.40
2023-03-05T21:43:46.398Z,5.30
2023-03-05T21:46:15.503Z,4.67
2023-03-05T21:48:43.124Z,5.07
2023-03-05T21:51:13.564Z,4.20
2023-03-05T21:53:41.370Z,4.30
2023-03-05T21:56:22.009Z,5.10
2023-03-05T21:58:50.791Z,4.10
2023-03-05T22:01:21.021Z,4.07
2023-03-05T22:03:49.533Z,4.57
2023-03-05T22:06:18.633Z,4.17
2023-03-05T22:08:47.132Z,5.00
2023-03-05T22:11:16.588Z,5.20
2023-03-05T22:13:44.480Z,4.83
2023-03-05T22:16:14.457Z,4.23
2023-03-05T22:18:46.150Z,4.00
2023-03-05T22:21:20.469Z,4.73
2023-03-05T22:23:48.412Z,4.53
2023-03-05T22:26:18.728Z,4.33
2023-03-05T22:28:48.002Z,4.10
2023-03-05T22:31:23.647Z,4.30
2023-03-05T22:33:55.614Z,4.33
2023-03-05T22:36:26.731Z,3.90
2023-03-05T22:38:55.616Z,3.63
2023-03-05T22:41:23.223Z,4.50
2023-03-05T22:43:52.808Z,4.70
2023-03-05T22:46:22.741Z,3.70
2023-03-05T22:48:52.454Z,4.00
2023-03-05T22:51:20.138Z,4.20
2023-03-05T22:53:47.701Z,3.80
2023-03-05T22:56:17.029Z,4.03
2023-03-05T22:58:44.630Z,3.40
2023-03-05T23:01:13.121Z,3.97
2023-03-05T23:03:41.370Z,3.97
2023-03-05T23:06:10.753Z,4.30
2023-03-05T23:08:38.507Z,4.17
2023-03-05T23:11:10.945Z,4.17
2023-03-05T23:13:38.599Z,3.50
2023-03-05T23:16:06.812Z,4.60
2023-03-05T23:18:34.423Z,3.67
2023-03-05T23:21:01.943Z,4.00
2023-03-05T23:23:30.863Z,4.00
2023-03-05T23:25:58.375Z,4.07
2023-03-05T23:28:26.210Z,4.33
2023-03-05T23:30:53.739Z,4.27
2023-03-05T23:33:24.349Z,3.90
2023-03-05T23:35:53.567Z,4.40
2023-03-05T23:38:21.523Z,3.73
2023-03-05T23:40:53.826Z,4.13
2023-03-05T23:43:24.475Z,3.30
2023-03-05T23:45:54.776Z,3.80
2023-03-05T23:48:22.856Z,3.97
2023-03-05T23:50:50.520Z,4.70
2023-03-05T23:53:20.575Z,4.17
2023-03-05T23:55:50.273Z,4.60
2023-03-05T23:58:18.917Z,3.70
